N624JX KLAS-CYUL
Flight info
| Callsign | N624JX |
|---|---|
| Flight time | 3h 48m |
| Altitude | 41000 |
| Route | GIDGT3 TUKRR DCT DVC DCT KD51U DCT KD57A DCT PWE DCT OBK/N0516F450 DCT HOCKE DCT DASIR Q905 SIKBO Q951 SANIN DCT MIGLO HABBS7 |
| Aircraft | C750/M-SBDE3FGHRWXY/S |
Departure
| Time | 2026-05-04 15:20 |
|---|---|
| Airport | Harry Reid International Airport (KLAS) |
Arrival
| Time | 2026-05-04 19:08 |
|---|---|
| Airport | Montreal / Pierre Elliott Trudeau International Airport (CYUL) |
| Time | Latitude | Longitude | Altitude | Speed | Heading |
|---|---|---|---|---|---|
| 2026-05-04 15:10 | 36.09882 | -115.16000 | 2111 ft | 0 kts | 115° |
| 2026-05-04 15:18 | 36.09877 | -115.15986 | 2110 ft | 4 kts | 115° |
| 2026-05-04 15:18 | 36.09882 | -115.15935 | 2107 ft | 8 kts | 43° |
| 2026-05-04 15:18 | 36.09935 | -115.15900 | 2106 ft | 8 kts | 36° |
| 2026-05-04 15:19 | 36.09983 | -115.15755 | 2100 ft | 11 kts | 83° |
| 2026-05-04 15:19 | 36.09959 | -115.15677 | 2097 ft | 7 kts | 115° |
| 2026-05-04 15:19 | 36.09745 | -115.15773 | 2098 ft | 74 kts | 205° |
| 2026-05-04 15:20 | 36.08965 | -115.16217 | 2134 ft | 139 kts | 203° |
| 2026-05-04 15:20 | 36.08077 | -115.16714 | 2555 ft | 151 kts | 202° |
| 2026-05-04 15:20 | 36.07153 | -115.17385 | 3134 ft | 161 kts | 221° |
| 2026-05-04 15:20 | 36.06518 | -115.18554 | 3688 ft | 170 kts | 246° |
| 2026-05-04 15:21 | 36.06356 | -115.20053 | 4237 ft | 187 kts | 272° |
| 2026-05-04 15:21 | 36.06614 | -115.21684 | 4866 ft | 200 kts | 277° |
| 2026-05-04 15:21 | 36.07177 | -115.25252 | 6094 ft | 222 kts | 277° |
| 2026-05-04 15:22 | 36.07648 | -115.27119 | 6605 ft | 240 kts | 298° |
| 2026-05-04 15:22 | 36.08973 | -115.28504 | 7017 ft | 265 kts | 335° |
| 2026-05-04 15:22 | 36.12671 | -115.29557 | 8534 ft | 277 kts | 351° |
| 2026-05-04 15:23 | 36.14600 | -115.29342 | 9240 ft | 284 kts | 22° |
| 2026-05-04 15:23 | 36.16251 | -115.27970 | 9768 ft | 294 kts | 51° |
| 2026-05-04 15:23 | 36.17355 | -115.25818 | 10268 ft | 301 kts | 66° |
| 2026-05-04 15:23 | 36.18125 | -115.23339 | 10750 ft | 310 kts | 74° |
| 2026-05-04 15:24 | 36.19575 | -115.18134 | 11669 ft | 328 kts | 85° |
| 2026-05-04 15:24 | 36.19606 | -115.12366 | 12622 ft | 344 kts | 93° |
| 2026-05-04 15:25 | 36.19615 | -115.09370 | 13058 ft | 352 kts | 92° |
| 2026-05-04 15:25 | 36.19625 | -115.06298 | 13548 ft | 360 kts | 92° |
| 2026-05-04 15:25 | 36.19625 | -115.03167 | 13985 ft | 368 kts | 93° |
| 2026-05-04 15:26 | 36.19619 | -114.96756 | 14831 ft | 382 kts | 93° |
| 2026-05-04 15:26 | 36.19619 | -114.93394 | 15273 ft | 389 kts | 93° |
| 2026-05-04 15:26 | 36.19611 | -114.86579 | 16097 ft | 402 kts | 93° |
| 2026-05-04 15:27 | 36.19606 | -114.83077 | 16493 ft | 410 kts | 93° |
| 2026-05-04 15:27 | 36.19594 | -114.75987 | 17474 ft | 420 kts | 94° |
| 2026-05-04 15:28 | 36.19575 | -114.68607 | 18436 ft | 431 kts | 94° |
| 2026-05-04 15:28 | 36.19566 | -114.64929 | 18924 ft | 435 kts | 94° |
| 2026-05-04 15:28 | 36.19553 | -114.57356 | 19911 ft | 444 kts | 94° |
| 2026-05-04 15:29 | 36.19542 | -114.53515 | 20421 ft | 449 kts | 94° |
| 2026-05-04 15:30 | 36.19485 | -114.37726 | 22417 ft | 468 kts | 94° |
| 2026-05-04 15:30 | 36.19432 | -114.25477 | 23836 ft | 481 kts | 93° |
| 2026-05-04 15:31 | 36.20275 | -114.17101 | 24537 ft | 496 kts | 84° |
| 2026-05-04 15:31 | 36.20777 | -114.12854 | 24842 ft | 502 kts | 85° |
| 2026-05-04 15:32 | 36.22316 | -113.99847 | 25977 ft | 517 kts | 85° |
| 2026-05-04 15:32 | 36.23359 | -113.90949 | 26692 ft | 527 kts | 85° |
| 2026-05-04 15:33 | 36.24424 | -113.81881 | 27463 ft | 537 kts | 85° |
| 2026-05-04 15:34 | 36.26041 | -113.67948 | 28620 ft | 551 kts | 86° |
| 2026-05-04 15:34 | 36.26588 | -113.63228 | 28943 ft | 556 kts | 86° |
| 2026-05-04 15:34 | 36.27689 | -113.53654 | 29664 ft | 566 kts | 86° |
| 2026-05-04 15:35 | 36.28797 | -113.43916 | 30295 ft | 575 kts | 86° |
| 2026-05-04 15:35 | 36.29356 | -113.38997 | 30637 ft | 577 kts | 86° |
| 2026-05-04 15:35 | 36.29912 | -113.34076 | 31201 ft | 576 kts | 86° |
| 2026-05-04 15:36 | 36.31145 | -113.24234 | 32071 ft | 580 kts | 80° |
| 2026-05-04 15:36 | 36.32326 | -113.19446 | 32625 ft | 582 kts | 71° |
| 2026-05-04 15:36 | 36.33917 | -113.14816 | 33086 ft | 584 kts | 67° |
| 2026-05-04 15:37 | 36.35559 | -113.10194 | 33460 ft | 587 kts | 67° |
| 2026-05-04 15:37 | 36.37184 | -113.05560 | 34012 ft | 585 kts | 67° |
| 2026-05-04 15:37 | 36.38800 | -113.00934 | 34451 ft | 584 kts | 66° |
| 2026-05-04 15:37 | 36.40427 | -112.96309 | 34901 ft | 584 kts | 66° |
| 2026-05-04 15:38 | 36.42052 | -112.91694 | 35345 ft | 583 kts | 66° |
| 2026-05-04 15:38 | 36.43667 | -112.87079 | 35816 ft | 582 kts | 66° |
| 2026-05-04 15:38 | 36.45274 | -112.82464 | 36281 ft | 582 kts | 65° |
| 2026-05-04 15:38 | 36.46881 | -112.77857 | 36725 ft | 581 kts | 65° |
| 2026-05-04 15:39 | 36.48487 | -112.73259 | 37226 ft | 579 kts | 64° |
| 2026-05-04 15:39 | 36.50085 | -112.68668 | 37711 ft | 578 kts | 64° |
| 2026-05-04 15:39 | 36.53266 | -112.59491 | 38669 ft | 576 kts | 64° |
| 2026-05-04 15:40 | 36.54851 | -112.54918 | 39062 ft | 575 kts | 64° |
| 2026-05-04 15:40 | 36.56427 | -112.50363 | 39525 ft | 572 kts | 64° |
| 2026-05-04 15:40 | 36.57992 | -112.45828 | 39992 ft | 569 kts | 64° |
| 2026-05-04 15:40 | 36.59548 | -112.41312 | 40479 ft | 566 kts | 64° |
| 2026-05-04 15:41 | 36.61098 | -112.36811 | 40877 ft | 566 kts | 65° |
| 2026-05-04 15:41 | 36.64241 | -112.27667 | 40869 ft | 583 kts | 65° |
| 2026-05-04 15:42 | 36.67459 | -112.18260 | 40869 ft | 598 kts | 65° |
| 2026-05-04 15:42 | 36.70754 | -112.08611 | 40875 ft | 611 kts | 65° |
| 2026-05-04 15:43 | 36.74101 | -111.98768 | 40873 ft | 621 kts | 65° |
| 2026-05-04 15:43 | 36.77474 | -111.88820 | 40858 ft | 625 kts | 65° |
| 2026-05-04 15:44 | 36.80844 | -111.78846 | 40850 ft | 624 kts | 65° |
| 2026-05-04 15:44 | 36.84205 | -111.68868 | 40851 ft | 623 kts | 65° |
| 2026-05-04 15:45 | 36.87730 | -111.58977 | 40857 ft | 625 kts | 63° |
| 2026-05-04 15:45 | 36.89543 | -111.54040 | 41002 ft | 626 kts | 63° |
| 2026-05-04 15:45 | 36.91349 | -111.49081 | 40992 ft | 627 kts | 63° |
| 2026-05-04 15:46 | 36.94949 | -111.39173 | 41008 ft | 626 kts | 63° |
| 2026-05-04 15:46 | 36.98560 | -111.29254 | 40979 ft | 626 kts | 63° |
| 2026-05-04 15:47 | 37.02145 | -111.19323 | 40919 ft | 625 kts | 63° |
| 2026-05-04 15:47 | 37.05731 | -111.09401 | 40876 ft | 626 kts | 63° |
| 2026-05-04 15:48 | 37.09298 | -110.99466 | 40852 ft | 624 kts | 63° |
| 2026-05-04 15:48 | 37.14645 | -110.84545 | 40861 ft | 627 kts | 63° |
| 2026-05-04 15:49 | 37.18199 | -110.74568 | 40858 ft | 627 kts | 63° |
| 2026-05-04 15:49 | 37.21757 | -110.64567 | 40858 ft | 628 kts | 63° |
| 2026-05-04 15:50 | 37.25295 | -110.54569 | 40853 ft | 626 kts | 63° |
| 2026-05-04 15:50 | 37.28233 | -110.46258 | 40880 ft | 628 kts | 63° |
| 2026-05-04 15:51 | 37.31771 | -110.36209 | 40862 ft | 628 kts | 63° |
| 2026-05-04 15:51 | 37.35287 | -110.26186 | 40871 ft | 623 kts | 63° |
| 2026-05-04 15:52 | 37.38765 | -110.16245 | 40876 ft | 621 kts | 63° |
| 2026-05-04 15:52 | 37.42229 | -110.06305 | 40886 ft | 618 kts | 63° |
| 2026-05-04 15:53 | 37.45675 | -109.96392 | 40885 ft | 619 kts | 63° |
| 2026-05-04 15:53 | 37.49114 | -109.86458 | 40892 ft | 619 kts | 63° |
| 2026-05-04 15:54 | 37.52544 | -109.76519 | 40893 ft | 618 kts | 63° |
| 2026-05-04 15:54 | 37.55957 | -109.66602 | 41026 ft | 617 kts | 63° |
| 2026-05-04 15:55 | 37.59361 | -109.56670 | 41061 ft | 617 kts | 63° |
| 2026-05-04 15:55 | 37.62756 | -109.46734 | 41059 ft | 617 kts | 63° |
| 2026-05-04 15:56 | 37.66139 | -109.36798 | 41040 ft | 616 kts | 62° |
| 2026-05-04 15:56 | 37.69512 | -109.26860 | 40989 ft | 616 kts | 63° |
| 2026-05-04 15:57 | 37.72877 | -109.16914 | 40943 ft | 615 kts | 63° |
| 2026-05-04 15:57 | 37.76232 | -109.06958 | 40913 ft | 615 kts | 62° |
| 2026-05-04 15:58 | 37.79576 | -108.97009 | 40904 ft | 616 kts | 62° |
| 2026-05-04 15:58 | 37.82523 | -108.86776 | 40902 ft | 622 kts | 69° |
| 2026-05-04 15:59 | 37.85030 | -108.76308 | 40914 ft | 621 kts | 69° |
| 2026-05-04 15:59 | 37.87670 | -108.66002 | 40904 ft | 621 kts | 69° |
| 2026-05-04 16:00 | 37.90198 | -108.55538 | 40927 ft | 622 kts | 69° |
| 2026-05-04 16:00 | 37.92826 | -108.45028 | 40914 ft | 622 kts | 69° |
| 2026-05-04 16:01 | 37.95348 | -108.34641 | 40928 ft | 620 kts | 70° |
| 2026-05-04 16:01 | 37.97906 | -108.24210 | 40915 ft | 619 kts | 69° |
| 2026-05-04 16:02 | 38.00439 | -108.13776 | 40931 ft | 620 kts | 70° |
| 2026-05-04 16:03 | 38.04235 | -107.98102 | 40931 ft | 620 kts | 69° |
| 2026-05-04 16:03 | 38.06743 | -107.87629 | 40933 ft | 620 kts | 69° |
| 2026-05-04 16:04 | 38.09252 | -107.77169 | 40933 ft | 619 kts | 69° |
| 2026-05-04 16:04 | 38.12990 | -107.61444 | 40951 ft | 619 kts | 70° |
| 2026-05-04 16:05 | 38.15477 | -107.50965 | 40960 ft | 620 kts | 70° |
| 2026-05-04 16:06 | 38.19180 | -107.35221 | 40954 ft | 617 kts | 70° |
| 2026-05-04 16:07 | 38.24072 | -107.14278 | 40997 ft | 616 kts | 70° |
| 2026-05-04 16:08 | 38.28929 | -106.93304 | 41041 ft | 618 kts | 70° |
| 2026-05-04 16:09 | 38.34954 | -106.67007 | 40992 ft | 618 kts | 70° |
| 2026-05-04 16:10 | 38.39735 | -106.45933 | 40968 ft | 620 kts | 70° |
| 2026-05-04 16:11 | 38.44452 | -106.24935 | 41012 ft | 607 kts | 70° |
| 2026-05-04 16:12 | 38.51234 | -105.93661 | 40896 ft | 608 kts | 73° |
| 2026-05-04 16:13 | 38.55289 | -105.72696 | 40847 ft | 607 kts | 73° |
| 2026-05-04 16:14 | 38.59305 | -105.51696 | 40826 ft | 608 kts | 73° |
| 2026-05-04 16:16 | 38.64272 | -105.25411 | 40790 ft | 607 kts | 73° |
| 2026-05-04 16:17 | 38.69157 | -104.99216 | 40879 ft | 605 kts | 73° |
| 2026-05-04 16:18 | 38.73011 | -104.78305 | 40939 ft | 602 kts | 73° |
| 2026-05-04 16:19 | 38.77766 | -104.52191 | 40918 ft | 602 kts | 74° |
| 2026-05-04 16:20 | 38.82464 | -104.26032 | 40824 ft | 602 kts | 74° |
| 2026-05-04 16:22 | 38.87098 | -103.99875 | 40718 ft | 601 kts | 74° |
| 2026-05-04 16:23 | 38.92575 | -103.68477 | 40723 ft | 600 kts | 74° |
| 2026-05-04 16:25 | 38.97959 | -103.37075 | 40722 ft | 599 kts | 74° |
| 2026-05-04 16:26 | 39.04119 | -103.00477 | 40718 ft | 600 kts | 75° |
| 2026-05-04 16:28 | 39.08459 | -102.74236 | 40722 ft | 600 kts | 75° |
| 2026-05-04 16:29 | 39.14437 | -102.37433 | 40830 ft | 601 kts | 75° |
| 2026-05-04 16:31 | 39.18645 | -102.11058 | 40726 ft | 601 kts | 75° |
| 2026-05-04 16:32 | 39.23615 | -101.79366 | 40795 ft | 601 kts | 75° |
| 2026-05-04 16:33 | 39.26881 | -101.58207 | 40800 ft | 601 kts | 75° |
| 2026-05-04 16:34 | 39.29033 | -101.44126 | 40772 ft | 601 kts | 75° |
| 2026-05-04 16:35 | 39.33817 | -101.12364 | 40730 ft | 600 kts | 75° |
| 2026-05-04 16:36 | 39.36177 | -100.96468 | 40752 ft | 601 kts | 75° |
| 2026-05-04 16:37 | 39.38505 | -100.80629 | 40786 ft | 601 kts | 75° |
| 2026-05-04 16:38 | 39.41600 | -100.59332 | 40725 ft | 601 kts | 76° |
| 2026-05-04 16:39 | 39.45390 | -100.32853 | 40719 ft | 601 kts | 76° |
| 2026-05-04 16:40 | 39.48385 | -100.11597 | 40747 ft | 599 kts | 76° |
| 2026-05-04 16:41 | 39.52983 | -99.85398 | 40764 ft | 596 kts | 70° |
| 2026-05-04 16:43 | 39.58167 | -99.59434 | 40748 ft | 595 kts | 71° |
| 2026-05-04 16:43 | 39.61243 | -99.43826 | 40734 ft | 595 kts | 71° |
| 2026-05-04 16:45 | 39.67349 | -99.12675 | 40765 ft | 594 kts | 71° |
| 2026-05-04 16:46 | 39.72333 | -98.86857 | 40726 ft | 589 kts | 71° |
| 2026-05-04 16:47 | 39.76279 | -98.66186 | 40724 ft | 587 kts | 72° |
| 2026-05-04 16:48 | 39.80170 | -98.45586 | 40718 ft | 587 kts | 72° |
| 2026-05-04 16:49 | 39.84022 | -98.24974 | 40721 ft | 584 kts | 72° |
| 2026-05-04 16:50 | 39.87826 | -98.04406 | 40715 ft | 585 kts | 72° |
| 2026-05-04 16:51 | 39.90651 | -97.88983 | 40711 ft | 580 kts | 72° |
| 2026-05-04 16:52 | 39.94370 | -97.68500 | 40705 ft | 581 kts | 72° |
| 2026-05-04 16:53 | 39.97137 | -97.53108 | 40704 ft | 579 kts | 73° |
| 2026-05-04 16:54 | 40.00778 | -97.32667 | 40704 ft | 579 kts | 73° |
| 2026-05-04 16:55 | 40.06155 | -97.02051 | 40695 ft | 577 kts | 73° |
| 2026-05-04 16:56 | 40.10576 | -96.76494 | 40711 ft | 576 kts | 73° |
| 2026-05-04 16:57 | 40.13197 | -96.61176 | 40710 ft | 576 kts | 74° |
| 2026-05-04 16:58 | 40.16661 | -96.40725 | 40689 ft | 574 kts | 74° |
| 2026-05-04 17:00 | 40.22899 | -96.10633 | 40670 ft | 568 kts | 63° |
| 2026-05-04 17:01 | 40.29855 | -95.86463 | 40675 ft | 567 kts | 65° |
| 2026-05-04 17:02 | 40.35345 | -95.67077 | 40671 ft | 565 kts | 65° |
| 2026-05-04 17:03 | 40.39425 | -95.52573 | 40668 ft | 565 kts | 66° |
| 2026-05-04 17:03 | 40.43511 | -95.38058 | 40667 ft | 565 kts | 66° |
| 2026-05-04 17:04 | 40.48909 | -95.18693 | 40681 ft | 564 kts | 66° |
| 2026-05-04 17:05 | 40.54271 | -94.99308 | 40694 ft | 564 kts | 66° |
| 2026-05-04 17:06 | 40.58265 | -94.84765 | 40689 ft | 562 kts | 66° |
| 2026-05-04 17:07 | 40.61793 | -94.71863 | 40680 ft | 563 kts | 66° |
| 2026-05-04 17:07 | 40.64880 | -94.60512 | 40665 ft | 563 kts | 66° |
| 2026-05-04 17:08 | 40.68819 | -94.45954 | 40670 ft | 562 kts | 67° |
| 2026-05-04 17:09 | 40.71433 | -94.36254 | 40669 ft | 562 kts | 67° |
| 2026-05-04 17:09 | 40.74038 | -94.26538 | 40678 ft | 562 kts | 67° |
| 2026-05-04 17:10 | 40.80511 | -94.02244 | 40666 ft | 561 kts | 67° |
| 2026-05-04 17:11 | 40.83084 | -93.92521 | 40666 ft | 561 kts | 67° |
| 2026-05-04 17:12 | 40.86925 | -93.77929 | 40660 ft | 560 kts | 68° |
| 2026-05-04 17:13 | 40.93278 | -93.53608 | 40668 ft | 560 kts | 68° |
| 2026-05-04 17:14 | 40.98325 | -93.34108 | 40667 ft | 560 kts | 68° |
| 2026-05-04 17:15 | 41.02090 | -93.19461 | 40667 ft | 560 kts | 68° |
| 2026-05-04 17:16 | 41.07081 | -92.99906 | 40664 ft | 559 kts | 68° |
| 2026-05-04 17:17 | 41.12031 | -92.80351 | 40660 ft | 559 kts | 68° |
| 2026-05-04 17:18 | 41.16532 | -92.62431 | 40667 ft | 558 kts | 69° |
| 2026-05-04 17:19 | 41.21408 | -92.42866 | 40669 ft | 558 kts | 69° |
| 2026-05-04 17:20 | 41.26250 | -92.23271 | 40660 ft | 557 kts | 69° |
| 2026-05-04 17:20 | 41.29851 | -92.08593 | 40652 ft | 557 kts | 69° |
| 2026-05-04 17:21 | 41.34626 | -91.88983 | 40659 ft | 557 kts | 69° |
| 2026-05-04 17:22 | 41.36996 | -91.79187 | 40653 ft | 557 kts | 69° |
| 2026-05-04 17:23 | 41.41725 | -91.59522 | 40657 ft | 557 kts | 69° |
| 2026-05-04 17:24 | 41.45245 | -91.44772 | 40656 ft | 556 kts | 69° |
| 2026-05-04 17:25 | 41.49907 | -91.25084 | 40654 ft | 557 kts | 70° |
| 2026-05-04 17:26 | 41.54535 | -91.05378 | 40652 ft | 555 kts | 70° |
| 2026-05-04 17:27 | 41.60278 | -90.80674 | 40647 ft | 558 kts | 70° |
| 2026-05-04 17:28 | 41.64834 | -90.60886 | 40652 ft | 557 kts | 70° |
| 2026-05-04 17:29 | 41.71602 | -90.31164 | 40648 ft | 555 kts | 70° |
| 2026-05-04 17:31 | 41.77157 | -90.06458 | 40652 ft | 556 kts | 71° |
| 2026-05-04 17:32 | 41.82704 | -89.81510 | 40648 ft | 557 kts | 71° |
| 2026-05-04 17:33 | 41.87093 | -89.61564 | 40650 ft | 557 kts | 71° |
| 2026-05-04 17:34 | 41.91447 | -89.41595 | 40661 ft | 557 kts | 71° |
| 2026-05-04 17:35 | 41.96840 | -89.16598 | 40648 ft | 557 kts | 71° |
| 2026-05-04 17:36 | 41.98964 | -89.06666 | 40648 ft | 558 kts | 71° |
| 2026-05-04 17:36 | 42.01100 | -88.96640 | 40666 ft | 558 kts | 71° |
| 2026-05-04 17:37 | 42.03227 | -88.86603 | 40672 ft | 558 kts | 71° |
| 2026-05-04 17:37 | 42.05343 | -88.76573 | 40670 ft | 557 kts | 71° |
| 2026-05-04 17:38 | 42.07449 | -88.66536 | 40667 ft | 557 kts | 72° |
| 2026-05-04 17:38 | 42.09547 | -88.56496 | 40666 ft | 557 kts | 72° |
| 2026-05-04 17:39 | 42.12676 | -88.41426 | 40660 ft | 556 kts | 72° |
| 2026-05-04 17:39 | 42.14751 | -88.31375 | 40659 ft | 557 kts | 72° |
| 2026-05-04 17:40 | 42.16816 | -88.21318 | 40657 ft | 557 kts | 72° |
| 2026-05-04 17:40 | 42.18874 | -88.11252 | 40641 ft | 558 kts | 72° |
| 2026-05-04 17:41 | 42.20923 | -88.01174 | 40643 ft | 557 kts | 72° |
| 2026-05-04 17:41 | 42.23051 | -87.91134 | 40639 ft | 556 kts | 70° |
| 2026-05-04 17:42 | 42.25277 | -87.81167 | 41085 ft | 549 kts | 71° |
| 2026-05-04 17:42 | 42.26365 | -87.76263 | 41539 ft | 542 kts | 71° |
| 2026-05-04 17:42 | 42.27449 | -87.71426 | 42005 ft | 535 kts | 71° |
| 2026-05-04 17:43 | 42.28520 | -87.66639 | 42498 ft | 529 kts | 71° |
| 2026-05-04 17:43 | 42.29566 | -87.61910 | 42967 ft | 523 kts | 71° |
| 2026-05-04 17:43 | 42.30586 | -87.57277 | 43448 ft | 517 kts | 71° |
| 2026-05-04 17:43 | 42.31622 | -87.52591 | 43957 ft | 511 kts | 71° |
| 2026-05-04 17:44 | 42.32634 | -87.48017 | 44434 ft | 505 kts | 71° |
| 2026-05-04 17:44 | 42.33634 | -87.43471 | 44635 ft | 507 kts | 71° |
| 2026-05-04 17:44 | 42.35665 | -87.34200 | 44645 ft | 522 kts | 71° |
| 2026-05-04 17:45 | 42.37744 | -87.24675 | 44686 ft | 535 kts | 72° |
| 2026-05-04 17:45 | 42.39868 | -87.14896 | 44669 ft | 548 kts | 72° |
| 2026-05-04 17:46 | 42.42023 | -87.04932 | 44665 ft | 554 kts | 72° |
| 2026-05-04 17:46 | 42.44162 | -86.94989 | 44668 ft | 554 kts | 72° |
| 2026-05-04 17:47 | 42.46308 | -86.84974 | 44673 ft | 554 kts | 72° |
| 2026-05-04 17:47 | 42.48445 | -86.74948 | 44670 ft | 554 kts | 72° |
| 2026-05-04 17:48 | 42.50574 | -86.64917 | 44666 ft | 554 kts | 72° |
| 2026-05-04 17:48 | 42.52694 | -86.54876 | 44656 ft | 554 kts | 72° |
| 2026-05-04 17:49 | 42.54805 | -86.44831 | 44661 ft | 554 kts | 72° |
| 2026-05-04 17:49 | 42.56909 | -86.34774 | 44673 ft | 554 kts | 73° |
| 2026-05-04 17:50 | 42.59000 | -86.24723 | 44675 ft | 554 kts | 73° |
| 2026-05-04 17:50 | 42.61085 | -86.14660 | 44672 ft | 555 kts | 73° |
| 2026-05-04 17:51 | 42.63165 | -86.04565 | 44672 ft | 555 kts | 73° |
| 2026-05-04 17:51 | 42.65237 | -85.94465 | 44672 ft | 555 kts | 73° |
| 2026-05-04 17:52 | 42.67298 | -85.84360 | 44671 ft | 555 kts | 73° |
| 2026-05-04 17:52 | 42.69352 | -85.74246 | 44662 ft | 555 kts | 73° |
| 2026-05-04 17:53 | 42.71395 | -85.64131 | 44665 ft | 555 kts | 73° |
| 2026-05-04 17:53 | 42.73432 | -85.54004 | 44665 ft | 555 kts | 73° |
| 2026-05-04 17:54 | 42.75458 | -85.43869 | 44663 ft | 555 kts | 73° |
| 2026-05-04 17:54 | 42.77476 | -85.33732 | 44659 ft | 555 kts | 73° |
| 2026-05-04 17:55 | 42.79484 | -85.23590 | 44658 ft | 555 kts | 74° |
| 2026-05-04 17:55 | 42.81482 | -85.13443 | 44658 ft | 555 kts | 74° |
| 2026-05-04 17:56 | 42.83473 | -85.03288 | 44661 ft | 555 kts | 74° |
| 2026-05-04 17:56 | 42.85449 | -84.93147 | 44670 ft | 554 kts | 74° |
| 2026-05-04 17:57 | 42.87404 | -84.83071 | 44656 ft | 554 kts | 74° |
| 2026-05-04 17:57 | 42.89376 | -84.72847 | 44667 ft | 554 kts | 74° |
| 2026-05-04 17:58 | 42.91313 | -84.62760 | 44669 ft | 553 kts | 74° |
| 2026-05-04 17:58 | 42.93252 | -84.52605 | 44671 ft | 553 kts | 74° |
| 2026-05-04 17:59 | 42.95182 | -84.42444 | 44679 ft | 554 kts | 75° |
| 2026-05-04 18:00 | 42.98061 | -84.27181 | 44651 ft | 553 kts | 75° |
| 2026-05-04 18:00 | 42.99969 | -84.17003 | 44649 ft | 553 kts | 75° |
| 2026-05-04 18:01 | 43.01868 | -84.06819 | 44651 ft | 553 kts | 75° |
| 2026-05-04 18:01 | 43.03757 | -83.96634 | 44644 ft | 553 kts | 75° |
| 2026-05-04 18:02 | 43.06576 | -83.81324 | 44672 ft | 554 kts | 75° |
| 2026-05-04 18:02 | 43.08142 | -83.72765 | 44654 ft | 553 kts | 75° |
| 2026-05-04 18:03 | 43.10003 | -83.62548 | 44656 ft | 554 kts | 75° |
| 2026-05-04 18:03 | 43.11854 | -83.52326 | 44658 ft | 554 kts | 75° |
| 2026-05-04 18:04 | 43.13699 | -83.42079 | 44659 ft | 555 kts | 75° |
| 2026-05-04 18:05 | 43.16451 | -83.26692 | 44650 ft | 554 kts | 75° |
| 2026-05-04 18:05 | 43.18273 | -83.16430 | 44655 ft | 555 kts | 75° |
| 2026-05-04 18:06 | 43.20978 | -83.01091 | 44642 ft | 554 kts | 76° |
| 2026-05-04 18:06 | 43.22790 | -82.90743 | 44635 ft | 553 kts | 76° |
| 2026-05-04 18:07 | 43.24577 | -82.80480 | 44641 ft | 554 kts | 76° |
| 2026-05-04 18:07 | 43.26327 | -82.70209 | 44645 ft | 552 kts | 78° |
| 2026-05-04 18:08 | 43.27681 | -82.59819 | 44643 ft | 553 kts | 79° |
| 2026-05-04 18:08 | 43.29038 | -82.49433 | 44662 ft | 553 kts | 79° |
| 2026-05-04 18:09 | 43.31719 | -82.28631 | 44665 ft | 553 kts | 79° |
| 2026-05-04 18:10 | 43.33057 | -82.18221 | 44653 ft | 554 kts | 79° |
| 2026-05-04 18:10 | 43.34367 | -82.07802 | 44662 ft | 554 kts | 79° |
| 2026-05-04 18:11 | 43.35682 | -81.97382 | 44664 ft | 553 kts | 79° |
| 2026-05-04 18:11 | 43.36975 | -81.86972 | 44675 ft | 553 kts | 80° |
| 2026-05-04 18:12 | 43.38267 | -81.76554 | 44674 ft | 553 kts | 80° |
| 2026-05-04 18:12 | 43.39545 | -81.66127 | 44674 ft | 553 kts | 80° |
| 2026-05-04 18:13 | 43.40819 | -81.55666 | 44668 ft | 555 kts | 80° |
| 2026-05-04 18:14 | 43.42713 | -81.39953 | 44675 ft | 555 kts | 80° |
| 2026-05-04 18:14 | 43.43966 | -81.29466 | 44680 ft | 555 kts | 80° |
| 2026-05-04 18:15 | 43.46428 | -81.08578 | 44682 ft | 555 kts | 80° |
| 2026-05-04 18:16 | 43.47649 | -80.98095 | 44707 ft | 555 kts | 81° |
| 2026-05-04 18:16 | 43.48860 | -80.87616 | 44685 ft | 553 kts | 81° |
| 2026-05-04 18:17 | 43.50654 | -80.71917 | 44698 ft | 553 kts | 81° |
| 2026-05-04 18:18 | 43.52428 | -80.56209 | 44688 ft | 553 kts | 81° |
| 2026-05-04 18:18 | 43.53598 | -80.45727 | 44690 ft | 554 kts | 81° |
| 2026-05-04 18:19 | 43.55337 | -80.29993 | 44692 ft | 554 kts | 81° |
| 2026-05-04 18:19 | 43.56491 | -80.19430 | 44695 ft | 554 kts | 81° |
| 2026-05-04 18:20 | 43.57620 | -80.09011 | 44690 ft | 552 kts | 81° |
| 2026-05-04 18:20 | 43.58753 | -79.98466 | 44690 ft | 552 kts | 81° |
| 2026-05-04 18:21 | 43.59867 | -79.87986 | 44702 ft | 552 kts | 81° |
| 2026-05-04 18:21 | 43.60966 | -79.77575 | 44692 ft | 552 kts | 81° |
| 2026-05-04 18:22 | 43.62063 | -79.67077 | 44691 ft | 553 kts | 82° |
| 2026-05-04 18:22 | 43.63151 | -79.56571 | 44692 ft | 553 kts | 82° |
| 2026-05-04 18:23 | 43.64230 | -79.46062 | 44702 ft | 553 kts | 82° |
| 2026-05-04 18:23 | 43.65340 | -79.35561 | 44695 ft | 552 kts | 79° |
| 2026-05-04 18:24 | 43.67517 | -79.25411 | 44705 ft | 551 kts | 70° |
| 2026-05-04 18:24 | 43.69913 | -79.15340 | 44715 ft | 552 kts | 73° |
| 2026-05-04 18:25 | 43.72154 | -79.05208 | 44736 ft | 550 kts | 71° |
| 2026-05-04 18:25 | 43.74516 | -78.95122 | 44728 ft | 552 kts | 72° |
| 2026-05-04 18:26 | 43.76765 | -78.84978 | 44730 ft | 552 kts | 72° |
| 2026-05-04 18:26 | 43.79084 | -78.74858 | 44744 ft | 552 kts | 72° |
| 2026-05-04 18:27 | 43.81341 | -78.64702 | 44741 ft | 553 kts | 72° |
| 2026-05-04 18:27 | 43.83626 | -78.54540 | 44736 ft | 553 kts | 72° |
| 2026-05-04 18:28 | 43.85881 | -78.44371 | 44744 ft | 551 kts | 72° |
| 2026-05-04 18:28 | 43.88133 | -78.34212 | 44743 ft | 552 kts | 72° |
| 2026-05-04 18:29 | 43.90373 | -78.24044 | 44748 ft | 552 kts | 72° |
| 2026-05-04 18:29 | 43.92605 | -78.13863 | 44746 ft | 552 kts | 72° |
| 2026-05-04 18:30 | 43.95936 | -77.98578 | 44749 ft | 552 kts | 72° |
| 2026-05-04 18:31 | 43.98134 | -77.88442 | 44749 ft | 552 kts | 73° |
| 2026-05-04 18:31 | 44.00351 | -77.78154 | 44746 ft | 552 kts | 73° |
| 2026-05-04 18:32 | 44.02531 | -77.67997 | 44751 ft | 553 kts | 73° |
| 2026-05-04 18:32 | 44.04716 | -77.57764 | 44748 ft | 552 kts | 73° |
| 2026-05-04 18:33 | 44.06895 | -77.47522 | 44747 ft | 552 kts | 73° |
| 2026-05-04 18:33 | 44.10073 | -77.37841 | 44731 ft | 551 kts | 57° |
| 2026-05-04 18:34 | 44.14422 | -77.29073 | 44747 ft | 550 kts | 53° |
| 2026-05-04 18:34 | 44.18543 | -77.20076 | 44749 ft | 552 kts | 58° |
| 2026-05-04 18:35 | 44.22699 | -77.11054 | 44754 ft | 552 kts | 54° |
| 2026-05-04 18:35 | 44.26891 | -77.02078 | 44744 ft | 552 kts | 56° |
| 2026-05-04 18:36 | 44.31041 | -76.93065 | 44754 ft | 552 kts | 57° |
| 2026-05-04 18:36 | 44.35158 | -76.84011 | 44758 ft | 552 kts | 56° |
| 2026-05-04 18:37 | 44.39300 | -76.74959 | 44753 ft | 554 kts | 56° |
| 2026-05-04 18:37 | 44.43422 | -76.65853 | 44757 ft | 554 kts | 56° |
| 2026-05-04 18:38 | 44.47549 | -76.56760 | 44753 ft | 554 kts | 56° |
| 2026-05-04 18:38 | 44.49603 | -76.52207 | 44635 ft | 553 kts | 57° |
| 2026-05-04 18:38 | 44.51657 | -76.47644 | 43911 ft | 551 kts | 57° |
| 2026-05-04 18:38 | 44.53694 | -76.43118 | 43253 ft | 547 kts | 56° |
| 2026-05-04 18:39 | 44.55725 | -76.38606 | 42597 ft | 546 kts | 56° |
| 2026-05-04 18:39 | 44.57746 | -76.34106 | 41945 ft | 545 kts | 56° |
| 2026-05-04 18:39 | 44.59762 | -76.29604 | 41291 ft | 545 kts | 55° |
| 2026-05-04 18:39 | 44.61775 | -76.25101 | 40642 ft | 545 kts | 55° |
| 2026-05-04 18:40 | 44.63707 | -76.20527 | 39973 ft | 546 kts | 59° |
| 2026-05-04 18:40 | 44.65273 | -76.15666 | 39337 ft | 547 kts | 64° |
| 2026-05-04 18:40 | 44.66665 | -76.10686 | 38679 ft | 548 kts | 66° |
| 2026-05-04 18:40 | 44.68055 | -76.05711 | 37953 ft | 546 kts | 64° |
| 2026-05-04 18:41 | 44.69537 | -76.00814 | 37297 ft | 544 kts | 62° |
| 2026-05-04 18:41 | 44.70983 | -75.95889 | 36660 ft | 545 kts | 64° |
| 2026-05-04 18:41 | 44.72297 | -75.90887 | 35985 ft | 545 kts | 65° |
| 2026-05-04 18:41 | 44.73598 | -75.85881 | 35333 ft | 544 kts | 64° |
| 2026-05-04 18:42 | 44.74936 | -75.80908 | 34682 ft | 543 kts | 63° |
| 2026-05-04 18:42 | 44.76284 | -75.75951 | 34032 ft | 542 kts | 63° |
| 2026-05-04 18:42 | 44.77602 | -75.70978 | 33330 ft | 544 kts | 63° |
| 2026-05-04 18:42 | 44.78904 | -75.65992 | 32675 ft | 540 kts | 63° |
| 2026-05-04 18:43 | 44.80205 | -75.61057 | 32025 ft | 535 kts | 63° |
| 2026-05-04 18:43 | 44.81508 | -75.56172 | 31391 ft | 531 kts | 63° |
| 2026-05-04 18:43 | 44.82793 | -75.51317 | 30757 ft | 527 kts | 64° |
| 2026-05-04 18:43 | 44.84065 | -75.46499 | 30126 ft | 522 kts | 63° |
| 2026-05-04 18:44 | 44.85441 | -75.41800 | 29465 ft | 516 kts | 63° |
| 2026-05-04 18:44 | 44.85888 | -75.40213 | 29254 ft | 515 kts | 63° |
| 2026-05-04 18:44 | 44.87574 | -75.34022 | 28444 ft | 506 kts | 64° |
| 2026-05-04 18:44 | 44.88863 | -75.29429 | 27841 ft | 501 kts | 63° |
| 2026-05-04 18:45 | 44.90174 | -75.24903 | 27240 ft | 497 kts | 63° |
| 2026-05-04 18:45 | 44.91453 | -75.20396 | 26653 ft | 493 kts | 64° |
| 2026-05-04 18:45 | 44.92689 | -75.15916 | 26066 ft | 488 kts | 64° |
| 2026-05-04 18:45 | 44.93922 | -75.11475 | 25484 ft | 484 kts | 64° |
| 2026-05-04 18:46 | 44.95163 | -75.07080 | 24906 ft | 479 kts | 64° |
| 2026-05-04 18:46 | 44.96390 | -75.02726 | 24336 ft | 476 kts | 64° |
| 2026-05-04 18:46 | 44.97592 | -74.98393 | 23793 ft | 472 kts | 64° |
| 2026-05-04 18:46 | 44.98870 | -74.94168 | 23167 ft | 463 kts | 58° |
| 2026-05-04 18:47 | 45.00436 | -74.90231 | 22606 ft | 457 kts | 55° |
| 2026-05-04 18:47 | 45.02027 | -74.86350 | 22052 ft | 456 kts | 55° |
| 2026-05-04 18:47 | 45.03585 | -74.82453 | 21507 ft | 454 kts | 56° |
| 2026-05-04 18:47 | 45.05109 | -74.78554 | 20964 ft | 452 kts | 56° |
| 2026-05-04 18:48 | 45.06639 | -74.74683 | 20410 ft | 450 kts | 56° |
| 2026-05-04 18:48 | 45.08176 | -74.70847 | 19877 ft | 447 kts | 56° |
| 2026-05-04 18:48 | 45.09700 | -74.67018 | 19345 ft | 446 kts | 57° |
| 2026-05-04 18:48 | 45.11205 | -74.63193 | 18813 ft | 444 kts | 57° |
| 2026-05-04 18:49 | 45.12795 | -74.59476 | 18290 ft | 440 kts | 53° |
| 2026-05-04 18:49 | 45.14422 | -74.55801 | 17719 ft | 439 kts | 54° |
| 2026-05-04 18:49 | 45.15993 | -74.52104 | 17185 ft | 437 kts | 55° |
| 2026-05-04 18:49 | 45.17570 | -74.48454 | 16791 ft | 431 kts | 54° |
| 2026-05-04 18:50 | 45.19153 | -74.44883 | 16396 ft | 431 kts | 54° |
| 2026-05-04 18:50 | 45.20736 | -74.41282 | 15890 ft | 429 kts | 54° |
| 2026-05-04 18:50 | 45.22308 | -74.37627 | 15361 ft | 427 kts | 55° |
| 2026-05-04 18:50 | 45.23825 | -74.34087 | 14861 ft | 424 kts | 54° |
| 2026-05-04 18:51 | 45.25386 | -74.30482 | 14347 ft | 422 kts | 54° |
| 2026-05-04 18:51 | 45.26919 | -74.26947 | 13843 ft | 419 kts | 54° |
| 2026-05-04 18:51 | 45.28437 | -74.23421 | 13322 ft | 416 kts | 55° |
| 2026-05-04 18:51 | 45.29935 | -74.19925 | 12810 ft | 413 kts | 54° |
| 2026-05-04 18:52 | 45.31429 | -74.16448 | 12320 ft | 411 kts | 54° |
| 2026-05-04 18:52 | 45.32912 | -74.13000 | 11832 ft | 404 kts | 54° |
| 2026-05-04 18:52 | 45.34319 | -74.09703 | 11357 ft | 376 kts | 54° |
| 2026-05-04 18:52 | 45.35634 | -74.06639 | 10920 ft | 350 kts | 52° |
| 2026-05-04 18:53 | 45.37167 | -74.04160 | 10486 ft | 321 kts | 35° |
| 2026-05-04 18:53 | 45.38809 | -74.02088 | 10145 ft | 313 kts | 34° |
| 2026-05-04 18:53 | 45.40410 | -74.00016 | 9782 ft | 310 kts | 35° |
| 2026-05-04 18:53 | 45.41986 | -73.97943 | 9395 ft | 307 kts | 35° |
| 2026-05-04 18:54 | 45.43553 | -73.95898 | 9041 ft | 304 kts | 36° |
| 2026-05-04 18:54 | 45.45112 | -73.93879 | 8667 ft | 302 kts | 36° |
| 2026-05-04 18:54 | 45.46658 | -73.91868 | 8296 ft | 300 kts | 36° |
| 2026-05-04 18:54 | 45.48190 | -73.89865 | 7926 ft | 298 kts | 37° |
| 2026-05-04 18:55 | 45.49713 | -73.87877 | 7582 ft | 296 kts | 37° |
| 2026-05-04 18:55 | 45.52728 | -73.83938 | 6871 ft | 293 kts | 38° |
| 2026-05-04 18:55 | 45.54231 | -73.81973 | 6524 ft | 292 kts | 39° |
| 2026-05-04 18:56 | 45.55713 | -73.80031 | 6170 ft | 288 kts | 39° |
| 2026-05-04 18:56 | 45.57190 | -73.78097 | 5808 ft | 289 kts | 39° |
| 2026-05-04 18:56 | 45.58668 | -73.76161 | 5461 ft | 288 kts | 39° |
| 2026-05-04 18:56 | 45.60134 | -73.74235 | 5118 ft | 283 kts | 39° |
| 2026-05-04 18:57 | 45.61545 | -73.72377 | 4780 ft | 266 kts | 39° |
| 2026-05-04 18:57 | 45.62851 | -73.70656 | 4460 ft | 247 kts | 39° |
| 2026-05-04 18:57 | 45.64107 | -73.69010 | 4161 ft | 245 kts | 38° |
| 2026-05-04 18:57 | 45.65342 | -73.67390 | 3978 ft | 236 kts | 39° |
| 2026-05-04 18:58 | 45.66559 | -73.65788 | 3987 ft | 239 kts | 39° |
| 2026-05-04 18:58 | 45.67785 | -73.64175 | 3819 ft | 240 kts | 39° |
| 2026-05-04 18:58 | 45.69003 | -73.62569 | 3607 ft | 237 kts | 39° |
| 2026-05-04 18:58 | 45.70214 | -73.60972 | 3408 ft | 236 kts | 40° |
| 2026-05-04 18:59 | 45.71426 | -73.59393 | 3191 ft | 235 kts | 38° |
| 2026-05-04 18:59 | 45.72692 | -73.57905 | 2981 ft | 235 kts | 39° |
| 2026-05-04 18:59 | 45.73494 | -73.55916 | 2912 ft | 241 kts | 79° |
| 2026-05-04 18:59 | 45.73233 | -73.53586 | 2906 ft | 228 kts | 121° |
| 2026-05-04 19:00 | 45.72361 | -73.51867 | 2994 ft | 203 kts | 134° |
| 2026-05-04 19:00 | 45.71493 | -73.50294 | 3000 ft | 203 kts | 133° |
| 2026-05-04 19:00 | 45.70423 | -73.49066 | 2906 ft | 195 kts | 169° |
| 2026-05-04 19:00 | 45.69140 | -73.49113 | 2971 ft | 177 kts | 195° |
| 2026-05-04 19:01 | 45.67977 | -73.49437 | 3003 ft | 167 kts | 197° |
| 2026-05-04 19:01 | 45.66853 | -73.49729 | 2998 ft | 162 kts | 195° |
| 2026-05-04 19:01 | 45.65762 | -73.50021 | 3000 ft | 157 kts | 197° |
| 2026-05-04 19:01 | 45.64697 | -73.50287 | 2992 ft | 154 kts | 196° |
| 2026-05-04 19:02 | 45.63699 | -73.50696 | 2945 ft | 145 kts | 217° |
| 2026-05-04 19:02 | 45.62956 | -73.51591 | 2995 ft | 139 kts | 224° |
| 2026-05-04 19:02 | 45.62223 | -73.52496 | 2989 ft | 139 kts | 225° |
| 2026-05-04 19:02 | 45.61511 | -73.53424 | 2992 ft | 138 kts | 226° |
| 2026-05-04 19:03 | 45.60801 | -73.54358 | 2997 ft | 139 kts | 226° |
| 2026-05-04 19:03 | 45.60100 | -73.55279 | 2974 ft | 131 kts | 226° |
| 2026-05-04 19:03 | 45.59446 | -73.56137 | 2987 ft | 126 kts | 226° |
| 2026-05-04 19:03 | 45.58802 | -73.56986 | 2981 ft | 125 kts | 227° |
| 2026-05-04 19:04 | 45.58183 | -73.57798 | 2945 ft | 119 kts | 226° |
| 2026-05-04 19:04 | 45.57574 | -73.58599 | 2795 ft | 119 kts | 226° |
| 2026-05-04 19:04 | 45.56968 | -73.59396 | 2632 ft | 119 kts | 227° |
| 2026-05-04 19:04 | 45.56363 | -73.60192 | 2477 ft | 118 kts | 227° |
| 2026-05-04 19:05 | 45.55758 | -73.60989 | 2313 ft | 118 kts | 226° |
| 2026-05-04 19:05 | 45.55159 | -73.61776 | 2160 ft | 117 kts | 227° |
| 2026-05-04 19:05 | 45.54560 | -73.62563 | 2005 ft | 117 kts | 228° |
| 2026-05-04 19:05 | 45.53953 | -73.63369 | 1843 ft | 121 kts | 227° |
| 2026-05-04 19:06 | 45.53331 | -73.64190 | 1674 ft | 122 kts | 226° |
| 2026-05-04 19:06 | 45.52708 | -73.65009 | 1510 ft | 121 kts | 227° |
| 2026-05-04 19:06 | 45.52101 | -73.65807 | 1348 ft | 116 kts | 227° |
| 2026-05-04 19:06 | 45.51516 | -73.66582 | 1196 ft | 114 kts | 227° |
| 2026-05-04 19:07 | 45.50933 | -73.67349 | 1034 ft | 113 kts | 227° |
| 2026-05-04 19:07 | 45.50360 | -73.68101 | 886 ft | 112 kts | 226° |
| 2026-05-04 19:07 | 45.49777 | -73.68877 | 724 ft | 116 kts | 224° |
| 2026-05-04 19:07 | 45.49169 | -73.69676 | 560 ft | 117 kts | 222° |
| 2026-05-04 19:08 | 45.48561 | -73.70471 | 393 ft | 118 kts | 222° |
| 2026-05-04 19:08 | 45.47957 | -73.71271 | 221 ft | 117 kts | 223° |
| 2026-05-04 19:08 | 45.47360 | -73.72054 | 112 ft | 110 kts | 221° |
| 2026-05-04 19:08 | 45.46965 | -73.72569 | 113 ft | 31 kts | 223° |
| 2026-05-04 19:09 | 45.46863 | -73.72704 | 113 ft | 14 kts | 225° |
| 2026-05-04 19:09 | 45.46885 | -73.72765 | 113 ft | 9 kts | 0° |
| 2026-05-04 19:09 | 45.46945 | -73.72746 | 113 ft | 9 kts | 13° |
| 2026-05-04 19:09 | 45.47010 | -73.72726 | 113 ft | 11 kts | 12° |
| 2026-05-04 19:10 | 45.47083 | -73.72703 | 113 ft | 10 kts | 12° |
| 2026-05-04 19:10 | 45.47152 | -73.72680 | 113 ft | 10 kts | 12° |
| 2026-05-04 19:10 | 45.47215 | -73.72648 | 113 ft | 10 kts | 39° |
| 2026-05-04 19:10 | 45.47281 | -73.72560 | 113 ft | 17 kts | 42° |
| 2026-05-04 19:11 | 45.47370 | -73.72444 | 113 ft | 17 kts | 43° |
| 2026-05-04 19:11 | 45.47457 | -73.72330 | 113 ft | 17 kts | 43° |
| 2026-05-04 19:11 | 45.47541 | -73.72220 | 113 ft | 16 kts | 43° |
| 2026-05-04 19:11 | 45.47623 | -73.72112 | 112 ft | 16 kts | 43° |
| 2026-05-04 19:12 | 45.47702 | -73.72008 | 111 ft | 15 kts | 42° |
| 2026-05-04 19:12 | 45.47813 | -73.71853 | 113 ft | 7 kts | 70° |
| 2026-05-04 19:12 | 45.47791 | -73.71780 | 113 ft | 11 kts | 133° |
| 2026-05-04 19:13 | 45.47739 | -73.71701 | 112 ft | 11 kts | 132° |
| 2026-05-04 19:13 | 45.47690 | -73.71618 | 111 ft | 11 kts | 129° |
| 2026-05-04 19:13 | 45.47645 | -73.71536 | 111 ft | 10 kts | 128° |
| 2026-05-04 19:13 | 45.47599 | -73.71465 | 112 ft | 9 kts | 133° |
| 2026-05-04 19:14 | 45.47560 | -73.71427 | 113 ft | 6 kts | 179° |
| 2026-05-04 19:14 | 45.47521 | -73.71464 | 110 ft | 7 kts | 223° |
| 2026-05-04 19:14 | 45.47483 | -73.71462 | 113 ft | 7 kts | 136° |
| 2026-05-04 19:14 | 45.47448 | -73.71409 | 111 ft | 6 kts | 133° |
| 2026-05-04 19:15 | 45.47429 | -73.71379 | 111 ft | 3 kts | 126° |
| 2026-05-04 19:15 | 45.47437 | -73.71362 | 113 ft | 2 kts | 39° |
| 2026-05-04 19:15 | 45.47438 | -73.71362 | 113 ft | 0 kts | 39° |